Time;durP1;ratioP1;P1;durP2;ratioP2;P2;SDS_P1;SDS_P2;PMS_P1;PMS_P2;Temp;Humidity;BMP_temperature;BMP_pressure;BME280_temperature;BME280_humidity;BME280_pressure;Samples;Min_cycle;Max_cycle;Signal;HPM_P1;HPM_P2
2021/09/15 00:00:58;;;;;;;18.87;16.97;;;19.70;1.00;20.60;100254.00;;;;5018393;28;20503;-83
2021/09/15 00:03:26;;;;;;;17.07;15.47;;;19.70;1.00;20.60;100249.00;;;;5020452;28;20514;-83
2021/09/15 00:05:55;;;;;;;17.93;16.13;;;19.60;1.00;20.60;100264.00;;;;5020476;28;20430;-83
2021/09/15 00:08:23;;;;;;;17.97;16.17;;;19.70;1.00;20.60;100253.00;;;;5019342;28;20468;-82
2021/09/15 00:10:52;;;;;;;18.60;16.70;;;19.70;1.00;20.60;100264.00;;;;5003337;28;20458;-83
2021/09/15 00:13:21;;;;;;;18.43;16.53;;;19.70;1.00;20.50;100258.00;;;;5020999;28;20438;-82
2021/09/15 00:15:50;;;;;;;17.20;15.70;;;19.70;1.00;20.50;100203.00;;;;5020089;28;20543;-82
2021/09/15 00:18:18;;;;;;;18.33;16.60;;;19.70;1.00;20.50;100266.00;;;;5018997;28;20497;-81
2021/09/15 00:20:47;;;;;;;16.77;15.00;;;19.70;1.00;20.50;100254.00;;;;5019962;28;20443;-82
2021/09/15 00:23:15;;;;;;;17.20;15.80;;;19.70;1.00;20.40;100265.00;;;;5020961;28;20466;-83
2021/09/15 00:25:43;;;;;;;17.97;16.40;;;19.60;1.00;20.40;100244.00;;;;5020210;28;20437;-83
2021/09/15 00:28:11;;;;;;;18.60;17.00;;;19.70;1.00;20.40;100255.00;;;;5019883;28;20466;-82
2021/09/15 00:30:41;;;;;;;17.77;16.27;;;19.60;1.00;20.40;100243.00;;;;5019818;28;20455;-83
2021/09/15 00:33:10;;;;;;;17.13;15.63;;;19.60;1.00;20.40;100222.00;;;;5020771;28;20481;-82
2021/09/15 00:35:38;;;;;;;18.30;16.70;;;19.60;1.00;20.30;100241.00;;;;5036801;28;20494;-81
2021/09/15 00:38:07;;;;;;;18.30;16.80;;;19.50;1.00;20.30;100249.00;;;;5021001;28;20457;-83
2021/09/15 00:40:35;;;;;;;16.73;15.20;;;19.50;1.00;20.30;100243.00;;;;5020041;28;20481;-80
2021/09/15 00:43:04;;;;;;;17.60;15.90;;;19.50;1.00;20.20;100245.00;;;;5033119;28;20454;-80
2021/09/15 00:45:33;;;;;;;18.10;16.23;;;19.40;1.00;20.20;100247.00;;;;5018857;28;20462;-81
2021/09/15 00:48:02;;;;;;;18.47;16.77;;;19.40;1.00;20.10;100166.00;;;;5018365;28;20462;-83
2021/09/15 00:50:31;;;;;;;19.00;17.20;;;19.30;1.00;20.10;100218.00;;;;5020688;28;20406;-81
2021/09/15 00:53:02;;;;;;;18.40;16.90;;;19.20;1.00;20.10;100224.00;;;;5025531;28;20462;-83
2021/09/15 00:55:31;;;;;;;19.70;17.80;;;19.20;1.00;20.00;100217.00;;;;5019149;28;20497;-82
2021/09/15 00:58:00;;;;;;;20.10;18.30;;;19.20;1.00;20.00;100217.00;;;;5013332;28;20462;-80
2021/09/15 01:00:28;;;;;;;19.17;17.20;;;19.20;1.00;20.00;100215.00;;;;5011309;28;20475;-80
2021/09/15 01:02:58;;;;;;;19.53;17.47;;;19.20;1.00;20.00;100216.00;;;;5002752;28;20454;-80
2021/09/15 01:05:29;;;;;;;18.83;17.33;;;19.20;1.00;19.90;100217.00;;;;5001657;28;20475;-81
2021/09/15 01:08:01;;;;;;;19.00;17.40;;;19.10;1.00;19.90;100202.00;;;;5002514;28;20478;-81
2021/09/15 01:10:31;;;;;;;18.97;17.07;;;19.10;1.00;19.90;100220.00;;;;5001858;28;20532;-80
2021/09/15 01:13:15;;;;;;;19.43;17.73;;;19.10;1.00;19.80;100202.00;;;;5003790;28;20482;-81
2021/09/15 01:16:06;;;;;;;21.13;19.40;;;19.00;1.00;19.70;100211.00;;;;5016970;28;20482;-81
2021/09/15 01:18:54;;;;;;;20.63;19.00;;;18.90;1.00;19.70;100208.00;;;;5013734;28;20455;-81
2021/09/15 01:21:47;;;;;;;23.40;21.20;;;18.80;1.00;19.70;100205.00;;;;5013776;28;20466;-81
2021/09/15 01:24:35;;;;;;;20.97;18.80;;;18.80;1.00;19.60;100205.00;;;;5017525;28;20454;-81
2021/09/15 01:27:21;;;;;;;20.60;18.90;;;18.90;1.00;19.60;100202.00;;;;5015135;28;20542;-81
2021/09/15 01:30:11;;;;;;;20.73;18.90;;;18.90;1.00;19.60;100211.00;;;;5006145;28;20509;-79
2021/09/15 01:32:46;;;;;;;21.10;19.00;;;18.80;1.00;19.60;100179.00;;;;5013683;28;20454;-81
2021/09/15 01:35:14;;;;;;;20.37;18.60;;;18.80;1.00;19.70;100206.00;;;;4994214;28;21022;-81
2021/09/15 01:37:44;;;;;;;19.97;18.27;;;18.80;1.00;19.70;100213.00;;;;5002680;28;20474;-81
2021/09/15 01:40:14;;;;;;;22.50;20.37;;;18.90;1.00;19.80;100206.00;;;;5012294;28;20459;-81
2021/09/15 01:42:43;;;;;;;19.13;17.53;;;18.90;1.00;19.90;100206.00;;;;5015853;28;20610;-81
2021/09/15 01:45:13;;;;;;;19.40;17.70;;;19.00;1.00;19.80;100197.00;;;;5024176;28;21215;-81
2021/09/15 01:47:44;;;;;;;19.70;17.90;;;19.00;1.00;19.90;100179.00;;;;4997294;28;20470;-81
2021/09/15 01:50:13;;;;;;;21.47;19.77;;;19.00;1.00;19.90;100189.00;;;;4995793;28;20458;-81
2021/09/15 01:52:43;;;;;;;22.73;20.70;;;19.00;1.00;19.80;100188.00;;;;4994731;28;20486;-79
2021/09/15 01:55:23;;;;;;;21.97;18.80;;;19.00;1.00;19.70;100193.00;;;;4996386;28;20466;-79
2021/09/15 01:57:59;;;;;;;21.80;20.00;;;18.90;1.00;19.70;100189.00;;;;4995126;28;20474;-80
2021/09/15 02:00:47;;;;;;;20.53;18.67;;;18.80;1.00;19.60;100193.00;;;;4995337;28;20552;-80
2021/09/15 02:03:35;;;;;;;26.97;24.33;;;18.80;1.00;19.50;100186.00;;;;4994708;28;20455;-80
2021/09/15 02:06:19;;;;;;;26.10;23.90;;;18.70;1.00;19.50;100176.00;;;;4993198;28;20459;-80
2021/09/15 02:08:54;;;;;;;24.10;22.17;;;18.60;1.00;19.50;100181.00;;;;4986780;28;20509;-80
2021/09/15 02:11:46;;;;;;;25.10;22.87;;;18.60;1.00;19.50;100171.00;;;;4993715;28;20458;-81
2021/09/15 02:14:16;;;;;;;26.10;23.80;;;18.60;1.00;19.50;100173.00;;;;5012910;28;20447;-81
2021/09/15 02:16:50;;;;;;;26.00;23.40;;;18.60;1.00;19.50;100177.00;;;;4995033;28;20467;-80
2021/09/15 02:19:20;;;;;;;24.67;22.17;;;18.60;1.00;19.40;100170.00;;;;5003189;28;20452;-80
2021/09/15 02:22:27;;;;;;;23.80;21.63;;;18.80;1.00;19.40;100176.00;;;;5026590;28;20461;-80
2021/09/15 02:25:13;;;;;;;22.53;20.67;;;18.60;1.00;19.50;100122.00;;;;5027308;28;20445;-79
2021/09/15 02:28:02;;;;;;;23.70;21.50;;;18.60;1.00;19.50;100176.00;;;;5023097;28;20477;-80
2021/09/15 02:30:50;;;;;;;22.30;20.20;;;18.70;1.00;19.50;100162.00;;;;5017023;28;20461;-80
2021/09/15 02:33:34;;;;;;;23.30;21.23;;;18.60;1.00;19.40;100183.00;;;;4994417;28;20450;-80
2021/09/15 02:36:04;;;;;;;24.87;22.33;;;18.60;1.00;19.40;100172.00;;;;4993720;28;20463;-80
2021/09/15 02:38:35;;;;;;;24.90;22.37;;;18.60;1.00;19.40;100154.00;;;;4991220;28;20468;-80
2021/09/15 02:41:33;;;;;;;24.03;21.93;;;18.50;1.00;19.40;100176.00;;;;4991079;28;21316;-80
2021/09/15 02:44:11;;;;;;;23.57;21.43;;;18.50;1.00;19.30;100166.00;;;;5002374;28;20450;-80
2021/09/15 02:46:59;;;;;;;24.10;21.70;;;18.50;1.00;19.30;100168.00;;;;5001004;28;20483;-80
2021/09/15 02:50:02;;;;;;;24.20;22.00;;;18.50;1.00;19.30;100169.00;;;;5005099;28;20463;-80
2021/09/15 02:52:51;;;;;;;22.20;20.30;;;18.50;1.00;19.30;100147.00;;;;5013416;28;20458;-80
2021/09/15 02:55:40;;;;;;;23.03;20.90;;;18.50;1.00;19.30;100162.00;;;;5005321;28;20450;-79
2021/09/15 02:58:29;;;;;;;22.57;20.70;;;18.50;1.00;19.30;100154.00;;;;5007267;28;20813;-80
2021/09/15 03:01:09;;;;;;;22.43;20.43;;;18.50;1.00;19.30;100158.00;;;;5000513;28;20474;-80
2021/09/15 03:03:50;;;;;;;22.70;20.70;;;18.50;1.00;19.30;100151.00;;;;4991191;28;20450;-79
2021/09/15 03:06:31;;;;;;;23.70;21.57;;;18.50;1.00;19.30;100157.00;;;;4974834;28;20506;-79
2021/09/15 03:09:21;;;;;;;24.23;22.07;;;18.50;1.00;19.30;100148.00;;;;4985810;28;20452;-80
2021/09/15 03:11:50;;;;;;;24.87;22.27;;;18.50;1.00;19.30;100152.00;;;;5003416;28;20550;-80
2021/09/15 03:14:21;;;;;;;23.60;21.30;;;18.50;1.00;19.30;100159.00;;;;4991853;28;20532;-80
2021/09/15 03:16:49;;;;;;;21.10;19.20;;;18.50;1.00;19.30;100149.00;;;;4990995;28;20992;-80
2021/09/15 03:19:17;;;;;;;22.60;20.47;;;18.60;1.00;19.30;100154.00;;;;4987544;28;20462;-81
2021/09/15 03:21:46;;;;;;;22.67;20.70;;;18.50;1.00;19.20;100166.00;;;;5007474;28;20540;-81
2021/09/15 03:24:15;;;;;;;24.27;22.27;;;18.40;1.00;19.20;100123.00;;;;4992907;28;21528;-81
2021/09/15 03:26:50;;;;;;;24.37;22.27;;;18.40;1.00;19.10;100154.00;;;;4992537;28;20571;-81
2021/09/15 03:29:20;;;;;;;30.30;27.30;;;18.30;1.00;19.10;100164.00;;;;5012372;28;20450;-80
2021/09/15 03:31:49;;;;;;;28.90;25.90;;;18.20;1.00;19.00;100158.00;;;;4997489;28;21038;-80
2021/09/15 03:34:18;;;;;;;29.20;26.50;;;18.20;1.00;18.90;100134.00;;;;4997707;28;20800;-81
2021/09/15 03:36:46;;;;;;;28.23;25.73;;;18.30;1.00;19.00;100154.00;;;;4996727;28;20541;-81
2021/09/15 03:39:14;;;;;;;25.63;23.33;;;18.20;1.00;19.00;100149.00;;;;4997872;28;20523;-81
2021/09/15 03:41:43;;;;;;;29.30;26.30;;;18.20;1.00;19.00;100153.00;;;;4998829;28;20474;-81
2021/09/15 03:44:12;;;;;;;27.17;24.67;;;18.30;1.00;19.10;100153.00;;;;5013825;28;20455;-81
2021/09/15 03:46:42;;;;;;;26.37;24.07;;;18.30;1.00;19.10;100117.00;;;;4994981;28;20509;-80
2021/09/15 03:49:10;;;;;;;24.57;22.20;;;18.30;1.00;19.10;100146.00;;;;4995067;28;20458;-80
2021/09/15 03:51:39;;;;;;;23.97;21.70;;;18.40;1.00;19.20;100149.00;;;;4992638;28;20447;-80
2021/09/15 03:54:08;;;;;;;24.00;21.77;;;18.40;1.00;19.20;100135.00;;;;5024211;28;20475;-79
2021/09/15 03:56:37;;;;;;;21.97;20.03;;;18.50;1.00;19.30;100131.00;;;;5031401;28;20475;-79
2021/09/15 03:59:06;;;;;;;21.87;19.97;;;18.50;1.00;19.30;100126.00;;;;5001387;28;20549;-81
2021/09/15 04:01:35;;;;;;;22.90;20.93;;;18.50;1.00;19.30;100123.00;;;;4987526;28;20471;-81
2021/09/15 04:04:05;;;;;;;22.50;20.17;;;18.60;1.00;19.40;100136.00;;;;4994714;28;20454;-80
2021/09/15 04:06:33;;;;;;;21.97;20.27;;;18.60;1.00;19.40;100136.00;;;;4992589;28;20494;-81
2021/09/15 04:09:03;;;;;;;22.53;20.53;;;18.60;1.00;19.40;100129.00;;;;5009267;28;20462;-80
2021/09/15 04:11:32;;;;;;;22.37;20.37;;;18.60;1.00;19.40;100129.00;;;;4993564;28;20878;-80
2021/09/15 04:14:00;;;;;;;21.73;19.57;;;18.60;1.00;19.40;100110.00;;;;4985190;28;20486;-80
2021/09/15 04:16:30;;;;;;;21.13;19.27;;;18.60;1.00;19.50;100133.00;;;;5007865;28;20466;-80
2021/09/15 04:19:00;;;;;;;22.37;20.20;;;18.60;1.00;19.50;100128.00;;;;5012035;28;20439;-80
2021/09/15 04:21:30;;;;;;;22.20;20.13;;;18.70;1.00;19.50;100128.00;;;;5008226;28;20953;-80
2021/09/15 04:24:17;;;;;;;23.17;21.00;;;18.70;1.00;19.50;100128.00;;;;4990299;28;20533;-80
2021/09/15 04:32:26;;;;;;;23.57;21.30;;;18.70;1.00;19.50;100109.00;;;;4998435;28;20491;-80
2021/09/15 04:34:55;;;;;;;23.50;21.20;;;18.70;1.00;19.50;100138.00;;;;5001656;28;20443;-81
2021/09/15 04:37:24;;;;;;;21.50;19.53;;;18.70;1.00;19.60;100134.00;;;;4998529;28;20550;-79
2021/09/15 04:39:53;;;;;;;22.63;20.60;;;18.80;1.00;19.60;100130.00;;;;4985224;28;20522;-81
2021/09/15 04:42:22;;;;;;;23.33;21.20;;;18.80;1.00;19.60;100136.00;;;;4998121;28;20570;-81
2021/09/15 04:44:50;;;;;;;23.73;21.53;;;18.80;1.00;19.60;100122.00;;;;4994611;28;20486;-81
2021/09/15 04:47:19;;;;;;;23.40;21.17;;;18.80;1.00;19.60;100120.00;;;;5006332;28;20488;-80
2021/09/15 04:49:47;;;;;;;23.33;21.13;;;18.80;1.00;19.60;100123.00;;;;5009073;28;20459;-81
2021/09/15 04:52:16;;;;;;;24.60;22.50;;;18.80;1.00;19.60;100136.00;;;;5000763;28;20451;-81
2021/09/15 04:54:46;;;;;;;24.80;21.93;;;18.90;1.00;19.60;100132.00;;;;5006399;28;20490;-81
2021/09/15 04:57:14;;;;;;;23.97;21.67;;;18.90;1.00;19.60;100127.00;;;;5013830;28;20496;-81
2021/09/15 04:59:42;;;;;;;21.77;19.77;;;18.90;1.00;19.60;100122.00;;;;5014275;28;20466;-80
2021/09/15 05:02:11;;;;;;;23.20;20.87;;;19.00;1.00;19.60;100094.00;;;;5011018;28;20576;-80
2021/09/15 05:04:40;;;;;;;22.30;19.90;;;19.10;1.00;19.60;100126.00;;;;5011978;28;20882;-80
2021/09/15 05:07:29;;;;;;;22.17;20.10;;;19.20;1.00;19.60;100127.00;;;;4993569;28;20529;-80
2021/09/15 05:09:59;;;;;;;21.40;19.50;;;19.20;1.00;19.70;100150.00;;;;5014672;28;20454;-81
2021/09/15 05:12:27;;;;;;;21.73;19.80;;;19.20;1.00;19.70;100138.00;;;;4997986;28;20463;-80
2021/09/15 05:14:58;;;;;;;20.93;18.97;;;19.30;1.00;19.50;100136.00;;;;4998657;28;20517;-80
2021/09/15 05:17:27;;;;;;;20.80;18.80;;;19.30;1.00;19.70;100135.00;;;;4992256;28;20471;-80
2021/09/15 05:19:56;;;;;;;19.93;17.90;;;19.30;1.00;19.80;100137.00;;;;4996825;28;20530;-80
2021/09/15 05:22:24;;;;;;;21.37;19.23;;;19.40;1.00;19.80;100140.00;;;;5001195;28;20467;-80
2021/09/15 05:24:53;;;;;;;19.83;17.83;;;19.40;1.00;19.80;100130.00;;;;5013117;28;20489;-80
2021/09/15 05:27:25;;;;;;;19.63;17.83;;;19.40;1.00;19.80;100137.00;;;;5003484;28;20498;-80
2021/09/15 05:29:54;;;;;;;18.63;17.03;;;19.40;1.00;19.90;100133.00;;;;5005665;28;20478;-80
2021/09/15 05:32:22;;;;;;;19.40;17.60;;;19.50;1.00;19.90;100153.00;;;;5001010;28;20451;-80
2021/09/15 05:34:51;;;;;;;18.30;16.43;;;19.50;1.00;20.00;100142.00;;;;5001094;28;20447;-81
2021/09/15 05:37:19;;;;;;;18.67;16.93;;;19.50;1.00;20.00;100141.00;;;;5003189;28;20473;-80
2021/09/15 05:39:48;;;;;;;19.27;17.47;;;19.50;1.00;20.00;100133.00;;;;5018987;28;20458;-80
2021/09/15 05:42:16;;;;;;;19.50;17.80;;;19.60;1.00;20.10;100120.00;;;;4999269;28;20478;-80
2021/09/15 05:44:46;;;;;;;20.80;17.17;;;19.50;1.00;20.10;100136.00;;;;5001207;28;20455;-81
2021/09/15 05:47:15;;;;;;;19.37;17.43;;;19.60;1.00;20.10;100135.00;;;;5002267;28;20477;-81
2021/09/15 05:49:43;;;;;;;17.33;15.53;;;19.60;1.00;20.10;100140.00;;;;4992892;28;21033;-80
2021/09/15 05:52:12;;;;;;;18.23;16.47;;;19.60;1.00;20.10;100143.00;;;;5011234;28;20456;-81
2021/09/15 05:54:40;;;;;;;17.10;15.70;;;19.60;1.00;20.10;100142.00;;;;4999004;28;20464;-81
2021/09/15 05:57:09;;;;;;;17.77;16.17;;;19.70;1.00;20.20;100139.00;;;;5001634;28;20507;-81
2021/09/15 05:59:37;;;;;;;17.93;16.20;;;19.70;1.00;20.10;100147.00;;;;4999931;28;20455;-80
2021/09/15 06:02:08;;;;;;;19.40;17.37;;;19.70;1.00;20.20;100141.00;;;;5018177;28;20467;-81
2021/09/15 06:04:36;;;;;;;18.43;16.57;;;19.70;1.00;20.20;100147.00;;;;5019199;28;20486;-81
2021/09/15 06:07:20;;;;;;;17.67;15.87;;;19.70;1.00;20.30;100154.00;;;;5011266;28;20498;-81
2021/09/15 06:09:48;;;;;;;16.27;14.77;;;19.70;1.00;20.30;100147.00;;;;5016817;28;20447;-81
2021/09/15 06:12:17;;;;;;;17.80;15.90;;;19.70;1.00;20.30;100142.00;;;;5034478;28;20473;-81
2021/09/15 06:14:45;;;;;;;17.40;15.70;;;19.80;1.00;20.40;100147.00;;;;5020089;28;20453;-81
2021/09/15 06:17:15;;;;;;;19.57;16.97;;;19.80;1.00;20.40;100159.00;;;;5016130;28;20455;-82
2021/09/15 06:19:44;;;;;;;19.93;17.43;;;19.90;1.00;20.50;100159.00;;;;5030426;28;20490;-81
2021/09/15 06:22:38;;;;;;;19.60;17.17;;;19.90;1.00;20.50;100160.00;;;;5009698;28;20479;-81
2021/09/15 06:25:30;;;;;;;17.87;16.17;;;19.90;1.00;20.50;100160.00;;;;4995164;28;20479;-81
2021/09/15 06:27:58;;;;;;;17.93;16.33;;;19.90;1.00;20.50;100151.00;;;;5015341;28;20570;-81
2021/09/15 06:30:27;;;;;;;17.80;16.10;;;19.90;1.00;20.40;100168.00;;;;4996542;28;20461;-79
2021/09/15 06:32:57;;;;;;;17.80;16.30;;;19.90;1.00;20.40;100176.00;;;;5008422;28;20455;-80
2021/09/15 06:35:26;;;;;;;17.33;15.67;;;19.90;1.00;20.40;100163.00;;;;5018764;28;20820;-81
2021/09/15 06:37:54;;;;;;;17.83;16.23;;;19.90;1.00;20.40;100160.00;;;;5001264;28;20484;-80
2021/09/15 06:40:23;;;;;;;17.23;15.80;;;19.80;1.00;20.40;100169.00;;;;5024160;28;20454;-81
2021/09/15 06:42:51;;;;;;;18.47;16.60;;;19.80;1.00;20.30;100168.00;;;;5015074;28;20517;-81
2021/09/15 06:45:20;;;;;;;17.57;15.90;;;19.80;1.00;20.30;100169.00;;;;5013657;28;20458;-82
2021/09/15 06:47:48;;;;;;;18.90;17.10;;;19.70;1.00;20.30;100169.00;;;;5014010;28;20493;-79
2021/09/15 06:50:18;;;;;;;20.10;18.07;;;19.70;1.00;20.20;100158.00;;;;5030170;28;20475;-82
2021/09/15 06:52:47;;;;;;;18.20;16.37;;;19.70;1.00;20.20;100162.00;;;;5007437;28;20697;-81
2021/09/15 06:55:15;;;;;;;20.10;18.30;;;19.50;1.00;20.00;100170.00;;;;5010026;28;20435;-82
2021/09/15 06:57:44;;;;;;;22.07;19.77;;;19.40;1.00;20.00;100159.00;;;;5014132;28;20459;-81
2021/09/15 07:00:14;;;;;;;20.60;18.73;;;19.30;1.00;20.00;100159.00;;;;5009360;28;20974;-82
2021/09/15 07:02:43;;;;;;;21.13;19.23;;;19.30;1.00;19.90;100170.00;;;;5002056;28;20472;-82
2021/09/15 07:05:12;;;;;;;23.87;21.77;;;19.30;1.00;19.90;100185.00;;;;4998161;28;20447;-81
2021/09/15 07:07:43;;;;;;;25.30;21.90;;;19.30;1.00;19.90;100191.00;;;;5006581;28;20480;-81
2021/09/15 07:10:12;;;;;;;23.73;21.30;;;19.30;1.00;19.90;100169.00;;;;5009169;28;20458;-81
2021/09/15 07:12:40;;;;;;;24.53;22.23;;;19.30;1.00;20.00;100179.00;;;;5011618;28;20520;-81
2021/09/15 07:15:11;;;;;;;27.97;23.07;;;19.30;1.00;20.00;100169.00;;;;5031184;28;20493;-83
2021/09/15 07:17:44;;;;;;;24.57;22.10;;;19.30;1.00;20.00;100184.00;;;;5033273;28;20493;-81
2021/09/15 07:20:14;;;;;;;26.23;23.73;;;19.30;1.00;20.00;100186.00;;;;5017569;28;20431;-81
2021/09/15 07:22:44;;;;;;;27.90;25.00;;;19.30;1.00;20.00;100179.00;;;;5032985;28;20497;-81
2021/09/15 07:25:15;;;;;;;26.73;24.10;;;19.30;1.00;20.00;100182.00;;;;5029525;28;20444;-80
2021/09/15 07:27:43;;;;;;;27.97;25.20;;;19.30;1.00;20.00;100188.00;;;;5028906;28;20471;-81
2021/09/15 07:30:13;;;;;;;25.50;23.03;;;19.30;1.00;20.00;100186.00;;;;5017930;28;20442;-80
2021/09/15 07:32:41;;;;;;;28.50;25.60;;;19.30;1.00;20.00;100196.00;;;;5015857;28;20522;-81
2021/09/15 07:35:13;;;;;;;27.40;24.80;;;19.40;1.00;20.10;100191.00;;;;5032296;28;20490;-81
2021/09/15 07:37:43;;;;;;;27.23;24.07;;;19.40;1.00;20.10;100193.00;;;;5031966;28;20485;-81
2021/09/15 07:40:14;;;;;;;25.43;22.83;;;19.40;1.00;20.20;100190.00;;;;5023870;28;20439;-80
2021/09/15 07:42:44;;;;;;;25.23;22.83;;;19.50;1.00;20.20;100180.00;;;;5034326;28;20547;-81
2021/09/15 07:45:13;;;;;;;24.03;21.93;;;19.50;1.00;20.20;100192.00;;;;5004165;28;20446;-81
2021/09/15 07:47:43;;;;;;;27.43;23.70;;;19.50;1.00;20.20;100202.00;;;;5010202;28;20475;-81
2021/09/15 07:50:12;;;;;;;25.10;22.10;;;19.50;1.00;20.20;100199.00;;;;4987280;28;20477;-81
2021/09/15 07:52:41;;;;;;;25.77;23.37;;;19.50;1.00;20.20;100197.00;;;;5005176;28;20490;-80
2021/09/15 07:55:13;;;;;;;23.37;21.17;;;19.50;1.00;20.30;100193.00;;;;5021825;28;20482;-81
2021/09/15 07:57:46;;;;;;;23.13;20.83;;;19.50;1.00;20.30;100196.00;;;;5010266;28;20490;-81
2021/09/15 08:00:21;;;;;;;21.23;19.00;;;19.60;1.00;20.30;100199.00;;;;5003936;28;20458;-80
2021/09/15 08:02:54;;;;;;;23.10;20.90;;;19.70;1.00;20.30;100205.00;;;;5030915;28;20494;-80
2021/09/15 08:05:26;;;;;;;21.73;19.50;;;19.70;1.00;20.40;100202.00;;;;5016716;28;20430;-80
2021/09/15 08:07:56;;;;;;;22.67;20.67;;;19.70;1.00;20.40;100192.00;;;;5026155;28;20474;-80
2021/09/15 08:10:26;;;;;;;20.77;18.87;;;19.80;1.00;20.50;100199.00;;;;5002205;28;20454;-79
2021/09/15 08:12:54;;;;;;;20.37;18.00;;;19.80;1.00;20.50;100201.00;;;;5002297;28;20459;-79
2021/09/15 08:15:27;;;;;;;21.80;19.67;;;19.80;1.00;20.60;100201.00;;;;5004840;28;20979;-81
2021/09/15 08:17:56;;;;;;;21.50;19.30;;;19.90;1.00;20.70;100207.00;;;;5018406;28;20889;-80
2021/09/15 08:20:25;;;;;;;22.30;20.30;;;20.10;1.00;20.90;100199.00;;;;5008505;28;20442;-80
2021/09/15 08:22:53;;;;;;;20.57;18.67;;;20.10;1.00;21.10;100186.00;;;;5006452;28;20474;-80
2021/09/15 08:25:22;;;;;;;22.23;20.23;;;20.30;1.00;21.20;100202.00;;;;5002027;28;20454;-80
2021/09/15 08:27:52;;;;;;;20.87;18.77;;;20.40;1.00;21.30;100201.00;;;;5001712;28;20485;-80
2021/09/15 08:30:20;;;;;;;19.07;17.30;;;20.50;1.00;21.30;100198.00;;;;5001900;28;20455;-80
2021/09/15 08:32:50;;;;;;;19.50;17.80;;;20.60;1.00;21.40;100211.00;;;;4991124;28;20818;-80
2021/09/15 08:35:18;;;;;;;19.60;17.50;;;20.60;1.00;21.40;100218.00;;;;4990525;28;20447;-80
2021/09/15 08:37:47;;;;;;;16.97;15.37;;;20.70;1.00;21.50;100189.00;;;;5011800;28;20482;-80
2021/09/15 08:40:16;;;;;;;17.80;16.10;;;20.80;1.00;21.50;100208.00;;;;4995726;28;20444;-79
2021/09/15 08:42:44;;;;;;;18.30;16.43;;;20.90;1.00;21.60;100203.00;;;;5011933;28;20467;-80
2021/09/15 08:45:16;;;;;;;17.50;15.80;;;20.90;1.00;21.60;100203.00;;;;5006078;28;20480;-81
2021/09/15 08:47:48;;;;;;;17.40;15.73;;;21.00;1.00;21.70;100207.00;;;;5001735;28;20474;-79
2021/09/15 08:50:17;;;;;;;17.97;16.07;;;21.10;1.00;21.70;100201.00;;;;4999285;28;20450;-80
2021/09/15 08:52:46;;;;;;;17.03;15.53;;;21.20;1.00;21.70;100210.00;;;;5001690;28;20447;-80
2021/09/15 08:55:15;;;;;;;18.37;16.67;;;21.10;1.00;21.70;100205.00;;;;5018389;28;20454;-80
2021/09/15 08:57:45;;;;;;;18.90;17.00;;;21.10;1.00;21.80;100200.00;;;;5020979;28;20488;-78
2021/09/15 09:00:19;;;;;;;17.43;15.83;;;21.10;1.00;21.80;100199.00;;;;5025014;28;20513;-80
2021/09/15 09:02:52;;;;;;;17.33;15.60;;;21.10;1.00;21.80;100208.00;;;;5018576;28;20790;-78
2021/09/15 09:05:21;;;;;;;18.17;16.37;;;21.10;1.00;21.90;100210.00;;;;5014187;28;20446;-79
2021/09/15 09:07:50;;;;;;;15.17;13.57;;;21.20;1.00;21.90;100205.00;;;;4998870;28;20466;-80
2021/09/15 09:10:18;;;;;;;16.83;15.13;;;21.30;1.00;22.00;100207.00;;;;4996978;28;20454;-79
2021/09/15 09:12:47;;;;;;;15.20;13.70;;;21.30;1.00;21.90;100213.00;;;;4998614;28;20450;-79
2021/09/15 09:15:22;;;;;;;15.20;13.60;;;21.20;1.00;21.90;100205.00;;;;4997287;28;20471;-79
2021/09/15 09:18:02;;;;;;;14.17;12.67;;;21.20;1.00;21.90;100209.00;;;;4997699;28;20474;-79
2021/09/15 09:20:33;;;;;;;15.37;13.93;;;21.20;1.00;21.80;100202.00;;;;5000866;28;20466;-79
2021/09/15 09:23:10;;;;;;;18.57;14.17;;;21.10;1.00;21.70;100204.00;;;;4997767;28;20454;-80
2021/09/15 09:25:43;;;;;;;17.57;14.97;;;21.00;1.00;21.70;100208.00;;;;4998722;28;20454;-79
2021/09/15 09:28:20;;;;;;;15.00;13.70;;;21.10;1.00;21.70;100204.00;;;;4997240;28;20458;-80
2021/09/15 09:30:51;;;;;;;14.80;13.40;;;21.00;1.00;21.60;100199.00;;;;4999358;28;20550;-79
2021/09/15 09:33:22;;;;;;;14.10;12.93;;;20.90;1.00;21.70;100195.00;;;;4998517;28;20562;-79
2021/09/15 09:35:52;;;;;;;17.00;14.43;;;21.00;1.00;21.70;100166.00;;;;4999026;28;20431;-79
2021/09/15 09:38:28;;;;;;;15.37;13.87;;;21.00;1.00;22.00;100189.00;;;;4997750;28;20577;-79
2021/09/15 09:41:06;;;;;;;15.40;13.80;;;21.30;1.00;22.30;100182.00;;;;4983370;28;20439;-79
2021/09/15 09:43:38;;;;;;;14.40;13.00;;;21.50;1.00;22.50;100195.00;;;;4997136;28;20475;-79
2021/09/15 09:46:10;;;;;;;14.87;13.47;;;21.80;1.00;22.60;100190.00;;;;4999016;28;20522;-79
2021/09/15 09:48:43;;;;;;;15.83;14.20;;;21.90;1.00;22.70;100181.00;;;;4998912;28;20435;-79
2021/09/15 09:51:32;;;;;;;13.83;12.53;;;21.90;1.00;22.50;100180.00;;;;5005496;28;20531;-79
2021/09/15 09:54:19;;;;;;;14.93;13.53;;;21.80;1.00;22.50;100160.00;;;;5010713;28;20472;-80
2021/09/15 09:56:50;;;;;;;15.33;13.90;;;21.80;1.00;22.60;100176.00;;;;5015567;28;20502;-79
2021/09/15 09:59:21;;;;;;;14.13;12.80;;;21.90;1.00;22.70;100184.00;;;;5008970;28;20450;-79
2021/09/15 10:01:56;;;;;;;14.37;12.50;;;22.00;1.00;22.80;100192.00;;;;4999189;28;20461;-79
2021/09/15 10:04:26;;;;;;;13.63;12.50;;;22.10;1.00;22.50;100186.00;;;;4998128;28;20469;-78
2021/09/15 10:06:56;;;;;;;14.03;12.63;;;21.80;1.00;22.20;100144.00;;;;4998967;28;20546;-79
2021/09/15 10:09:25;;;;;;;14.50;13.10;;;21.60;1.00;22.20;100177.00;;;;4997352;28;20529;-79
2021/09/15 10:11:56;;;;;;;14.17;12.77;;;21.50;1.00;22.30;100178.00;;;;4998384;28;20450;-79
2021/09/15 10:14:28;;;;;;;14.40;13.20;;;21.60;1.00;22.40;100176.00;;;;5001068;28;20473;-79
2021/09/15 10:17:15;;;;;;;14.77;13.57;;;21.70;1.00;22.40;100178.00;;;;5004376;28;20454;-79
2021/09/15 10:19:53;;;;;;;14.07;12.67;;;21.70;1.00;22.50;100178.00;;;;4996357;28;20435;-78
2021/09/15 10:22:30;;;;;;;16.03;14.37;;;21.80;1.00;22.50;100177.00;;;;5012720;28;20486;-78
2021/09/15 10:25:02;;;;;;;12.53;11.53;;;21.80;1.00;22.70;100171.00;;;;4996041;28;20498;-79
2021/09/15 10:27:52;;;;;;;12.53;10.73;;;21.90;1.00;22.60;100165.00;;;;4996769;28;20479;-78
2021/09/15 10:30:21;;;;;;;12.07;10.97;;;21.90;1.00;22.60;100170.00;;;;4994716;28;20458;-79
2021/09/15 10:32:51;;;;;;;11.20;10.10;;;21.80;1.00;22.50;100172.00;;;;4997100;28;20453;-79
2021/09/15 10:35:44;;;;;;;10.90;9.83;;;21.80;1.00;22.60;100173.00;;;;4996306;28;20427;-78
2021/09/15 10:38:13;;;;;;;11.77;10.60;;;21.90;1.00;22.70;100162.00;;;;4999550;28;20550;-81
2021/09/15 10:40:45;;;;;;;9.80;8.83;;;21.90;1.00;22.80;100162.00;;;;5017581;28;20451;-78
2021/09/15 10:43:44;;;;;;;9.40;8.57;;;22.00;1.00;23.10;100142.00;;;;5003746;28;20534;-80
2021/09/15 10:46:33;;;;;;;8.03;7.23;;;22.30;1.00;23.40;100156.00;;;;4991108;28;20923;-80
2021/09/15 10:49:45;;;;;;;10.73;7.47;;;22.60;1.00;23.70;100156.00;;;;4997893;28;20458;-79
2021/09/15 10:52:39;;;;;;;7.40;6.60;;;22.80;1.00;23.70;100158.00;;;;4997939;28;20474;-80
2021/09/15 10:55:20;;;;;;;8.23;6.90;;;22.90;1.00;23.80;100146.00;;;;5006562;28;20557;-81
2021/09/15 10:57:49;;;;;;;6.80;6.20;;;23.00;1.00;23.70;100149.00;;;;5008718;28;20546;-80
2021/09/15 11:00:27;;;;;;;7.00;6.30;;;23.00;1.00;23.70;100128.00;;;;5007619;28;20538;-78
2021/09/15 11:02:57;;;;;;;6.83;6.13;;;22.90;1.00;23.50;100132.00;;;;5015527;28;20458;-79
2021/09/15 11:05:44;;;;;;;7.97;5.80;;;22.80;1.00;23.60;100154.00;;;;5011851;28;20467;-79
2021/09/15 11:08:34;;;;;;;6.80;6.03;;;22.80;1.00;23.50;100154.00;;;;5003394;28;20474;-79
2021/09/15 11:11:07;;;;;;;6.03;5.43;;;22.70;1.00;23.50;100123.00;;;;4999918;28;20466;-79